createdAt,value
2016-08-26T00:00:01.665Z,63.3
2016-08-26T00:00:25.787Z,63.2
2016-08-26T00:00:49.934Z,63.3
2016-08-26T00:01:14.065Z,63.3
2016-08-26T00:01:38.180Z,63.7
2016-08-26T00:02:02.273Z,63.3
2016-08-26T00:02:26.387Z,63.4
2016-08-26T00:02:50.533Z,63.4
2016-08-26T00:03:14.676Z,63.4
2016-08-26T00:03:38.809Z,63.4
2016-08-26T00:04:02.937Z,63.4
2016-08-26T00:04:27.071Z,63.3
2016-08-26T00:04:51.189Z,63.2
2016-08-26T00:05:15.329Z,63.3
2016-08-26T00:05:39.454Z,63.7
2016-08-26T00:06:05.235Z,63.6
2016-08-26T00:06:29.405Z,63.3
2016-08-26T00:06:53.535Z,63.2
2016-08-26T00:07:18.632Z,63.2
2016-08-26T00:07:42.798Z,63.4
2016-08-26T00:08:06.919Z,63.4
2016-08-26T00:08:31.044Z,63.4
2016-08-26T00:08:55.159Z,63.3
2016-08-26T00:09:19.280Z,63.1
2016-08-26T00:09:43.388Z,63.2
2016-08-26T00:10:07.509Z,63.1
2016-08-26T00:10:31.643Z,63.1
2016-08-26T00:10:55.758Z,63.3
2016-08-26T00:11:19.899Z,63.2
2016-08-26T00:11:44.044Z,63.3
2016-08-26T00:12:08.135Z,63.4
2016-08-26T00:12:32.245Z,63.3
2016-08-26T00:12:56.368Z,63.6
2016-08-26T00:13:20.495Z,64.1
2016-08-26T00:13:44.611Z,63.9
2016-08-26T00:14:08.731Z,64
2016-08-26T00:14:32.848Z,64
2016-08-26T00:14:56.991Z,64.1
2016-08-26T00:15:21.123Z,63.9
2016-08-26T00:15:45.254Z,63.8
2016-08-26T00:16:09.372Z,63.6
2016-08-26T00:16:33.511Z,63.9
2016-08-26T00:16:57.661Z,63.7
2016-08-26T00:17:21.809Z,63.9
2016-08-26T00:17:45.942Z,64.5
2016-08-26T00:18:10.067Z,64
2016-08-26T00:18:34.197Z,63.8
2016-08-26T00:18:58.310Z,64.1
2016-08-26T00:19:22.443Z,64
2016-08-26T00:19:46.559Z,63.8
2016-08-26T00:20:10.714Z,64
2016-08-26T00:20:34.828Z,63.8
2016-08-26T00:20:58.968Z,63.8
2016-08-26T00:21:23.103Z,63.8
2016-08-26T00:21:47.237Z,63.7
2016-08-26T00:22:11.351Z,63.6
2016-08-26T00:22:35.467Z,64.1
2016-08-26T00:22:59.598Z,63.7
2016-08-26T00:23:23.719Z,64
2016-08-26T00:23:47.847Z,64
2016-08-26T00:24:11.999Z,63.9
2016-08-26T00:24:36.143Z,64
2016-08-26T00:25:00.267Z,64.5
2016-08-26T00:25:24.413Z,64.5
2016-08-26T00:25:48.636Z,64.3
2016-08-26T00:26:12.740Z,64.2
2016-08-26T00:26:36.874Z,64.2
2016-08-26T00:27:01.023Z,64.2
2016-08-26T00:27:25.156Z,64.4
2016-08-26T00:27:49.302Z,64.1
2016-08-26T00:28:13.442Z,64.4
2016-08-26T00:28:37.556Z,64.7
2016-08-26T00:29:01.693Z,64.5
2016-08-26T00:29:25.805Z,64.4
2016-08-26T00:29:49.924Z,64.6
2016-08-26T00:30:14.059Z,64.2
2016-08-26T00:30:38.167Z,64.3
2016-08-26T00:31:02.284Z,64.6
2016-08-26T00:31:26.416Z,64.4
2016-08-26T00:31:50.530Z,64.5
2016-08-26T00:32:14.666Z,64.1
2016-08-26T00:32:38.771Z,64.2
2016-08-26T00:33:02.893Z,64.1
2016-08-26T00:33:27.032Z,64.1
2016-08-26T00:33:51.124Z,64.3
2016-08-26T00:34:15.248Z,64.1
2016-08-26T00:34:39.373Z,64.8
2016-08-26T00:35:03.527Z,64.3
2016-08-26T00:35:27.639Z,64.2
2016-08-26T00:35:51.786Z,64.3
2016-08-26T00:36:15.928Z,64.3
2016-08-26T00:36:40.069Z,65
2016-08-26T00:37:04.165Z,64.8
2016-08-26T00:37:28.290Z,64.8
2016-08-26T00:37:52.429Z,65.2
2016-08-26T00:38:16.550Z,64.9
2016-08-26T00:38:40.692Z,65.2
2016-08-26T00:39:04.810Z,65.1
2016-08-26T00:39:28.947Z,64.9
2016-08-26T00:39:53.142Z,64.9
2016-08-26T00:40:17.261Z,65.1
2016-08-26T00:40:41.405Z,64.7
2016-08-26T00:41:05.576Z,64.7
2016-08-26T00:41:29.724Z,64.9
2016-08-26T00:41:53.840Z,64.7
2016-08-26T00:42:17.956Z,64.7
2016-08-26T00:42:42.101Z,64.9
2016-08-26T00:43:06.235Z,64.9
2016-08-26T00:43:30.356Z,64.7
2016-08-26T00:43:54.474Z,65
2016-08-26T00:44:18.605Z,64.7
2016-08-26T00:44:42.738Z,65.1
2016-08-26T00:45:06.874Z,64.9
2016-08-26T00:45:30.989Z,65
2016-08-26T00:45:55.138Z,65.2
2016-08-26T00:46:19.275Z,64.9
2016-08-26T00:46:43.429Z,64.8
2016-08-26T00:47:07.542Z,65
2016-08-26T00:47:31.686Z,64.9
2016-08-26T00:47:55.867Z,65
2016-08-26T00:48:19.985Z,64.9
2016-08-26T00:48:44.091Z,65.2
2016-08-26T00:49:08.228Z,64.9
2016-08-26T00:49:32.349Z,65.2
2016-08-26T00:49:56.475Z,65.4
2016-08-26T00:50:20.590Z,65.1
2016-08-26T00:50:44.739Z,65.1
2016-08-26T00:51:08.891Z,65.3
2016-08-26T00:51:33.009Z,64.9
2016-08-26T00:51:57.125Z,65
2016-08-26T00:52:21.236Z,65
2016-08-26T00:52:45.401Z,64.6
2016-08-26T00:53:09.538Z,64.7
2016-08-26T00:53:33.664Z,65
2016-08-26T00:53:57.793Z,65.1
2016-08-26T00:54:21.926Z,65
2016-08-26T00:54:46.055Z,64.7
2016-08-26T00:55:10.167Z,64.7
2016-08-26T00:55:34.301Z,65.2
2016-08-26T00:55:58.414Z,64.9
2016-08-26T00:56:22.553Z,64.9
2016-08-26T00:56:46.665Z,64.8
2016-08-26T00:57:10.786Z,64.8
2016-08-26T00:57:34.910Z,64.7
2016-08-26T00:57:59.045Z,64.7
2016-08-26T00:58:23.158Z,65
2016-08-26T00:58:47.261Z,65.1
2016-08-26T00:59:11.422Z,64.9
2016-08-26T00:59:35.566Z,65.1
2016-08-26T00:59:59.703Z,65.2
2016-08-26T01:00:23.835Z,65.1
2016-08-26T01:00:47.977Z,65.3
2016-08-26T01:01:12.100Z,65
2016-08-26T01:01:36.259Z,65
2016-08-26T01:02:00.400Z,64.7
2016-08-26T01:02:24.532Z,64.6
2016-08-26T01:02:48.699Z,65.2
2016-08-26T01:03:12.842Z,65
2016-08-26T01:03:36.962Z,65
2016-08-26T01:04:01.119Z,64.7
2016-08-26T01:04:25.246Z,64.7
2016-08-26T01:04:49.401Z,64.6
2016-08-26T01:05:13.505Z,65
2016-08-26T01:05:37.658Z,64.7
2016-08-26T01:06:01.799Z,65
2016-08-26T01:06:25.941Z,65.1
2016-08-26T01:06:50.069Z,64.7
2016-08-26T01:07:14.203Z,64.8
2016-08-26T01:07:38.369Z,64.9
2016-08-26T01:08:02.503Z,65
2016-08-26T01:08:26.601Z,64.6
2016-08-26T01:08:50.707Z,65.1
2016-08-26T01:09:14.846Z,64.9
2016-08-26T01:09:38.992Z,64.7
2016-08-26T01:10:03.136Z,65.1
2016-08-26T01:10:27.266Z,65.1
2016-08-26T01:10:51.367Z,65
2016-08-26T01:11:15.517Z,64.9
2016-08-26T01:11:39.641Z,64.8
2016-08-26T01:12:03.774Z,64.8
2016-08-26T01:12:27.906Z,64.3
2016-08-26T01:12:52.063Z,64.3
2016-08-26T01:13:16.185Z,64.3
2016-08-26T01:13:40.314Z,64.3
2016-08-26T01:14:04.440Z,64.3
2016-08-26T01:14:28.576Z,64.2
2016-08-26T01:14:52.700Z,64.4
2016-08-26T01:15:16.827Z,65
2016-08-26T01:15:40.981Z,64.7
2016-08-26T01:16:05.103Z,64.2
2016-08-26T01:16:29.231Z,64.2
2016-08-26T01:16:53.345Z,64.8
2016-08-26T01:17:17.496Z,64.8
2016-08-26T01:17:41.613Z,65
2016-08-26T01:18:05.744Z,65
2016-08-26T01:18:29.855Z,65
2016-08-26T01:18:53.988Z,64.7
2016-08-26T01:19:18.106Z,64.7
2016-08-26T01:19:42.253Z,64.1
2016-08-26T01:20:06.376Z,64.2
2016-08-26T01:20:30.490Z,64.2
2016-08-26T01:20:54.614Z,64.5
2016-08-26T01:21:18.754Z,64.7
2016-08-26T01:21:42.865Z,64.8
2016-08-26T01:22:07.011Z,65.2
2016-08-26T01:22:31.147Z,65.1
2016-08-26T01:22:55.290Z,65
2016-08-26T01:23:19.409Z,64.9
2016-08-26T01:23:43.553Z,65
2016-08-26T01:24:07.701Z,65.2
2016-08-26T01:24:31.855Z,64.9
2016-08-26T01:24:56.010Z,64.7
2016-08-26T01:25:20.132Z,64.8
2016-08-26T01:25:44.266Z,64.8
2016-08-26T01:26:08.393Z,64.7
2016-08-26T01:26:32.539Z,65
2016-08-26T01:26:56.655Z,65.1
2016-08-26T01:27:20.808Z,65.4
2016-08-26T01:27:44.967Z,65.3
2016-08-26T01:28:09.121Z,65
2016-08-26T01:28:33.250Z,65.8
2016-08-26T01:28:57.393Z,65.5
2016-08-26T01:29:21.502Z,65.2
2016-08-26T01:29:45.609Z,65.3
2016-08-26T01:30:09.765Z,65.7
2016-08-26T01:30:33.910Z,65.7
2016-08-26T01:30:58.078Z,65.7
2016-08-26T01:31:22.207Z,66
2016-08-26T01:31:46.346Z,65.7
2016-08-26T01:32:10.490Z,65.5
2016-08-26T01:32:34.638Z,65.4
2016-08-26T01:32:58.817Z,65.8
2016-08-26T01:33:22.937Z,65.7
2016-08-26T01:33:47.073Z,65.5
2016-08-26T01:34:11.218Z,65.8
2016-08-26T01:34:35.360Z,65.5
2016-08-26T01:34:59.524Z,66.1
2016-08-26T01:35:23.636Z,65.5
2016-08-26T01:35:47.786Z,65.8
2016-08-26T01:36:11.930Z,65.9
2016-08-26T01:36:36.059Z,65.4
2016-08-26T01:37:00.176Z,65.5
2016-08-26T01:37:24.312Z,65.7
2016-08-26T01:37:48.445Z,65.8
2016-08-26T01:38:12.600Z,65.7
2016-08-26T01:38:36.737Z,65.8
2016-08-26T01:39:00.871Z,65.7
2016-08-26T01:39:24.989Z,65.5
2016-08-26T01:39:49.134Z,66
2016-08-26T01:40:13.272Z,66
2016-08-26T01:40:37.413Z,66.2
2016-08-26T01:41:01.557Z,66.3
2016-08-26T01:41:25.715Z,66.2
2016-08-26T01:41:49.836Z,66.1
2016-08-26T01:42:13.986Z,66.2
2016-08-26T01:42:38.163Z,66
2016-08-26T01:43:02.323Z,66
2016-08-26T01:43:26.476Z,66.1
2016-08-26T01:43:50.609Z,66.2
2016-08-26T01:44:14.744Z,66
2016-08-26T01:44:38.860Z,66.1
2016-08-26T01:45:02.999Z,66.3
2016-08-26T01:45:27.114Z,66.4
2016-08-26T01:45:51.324Z,66
2016-08-26T01:46:15.474Z,66.3
2016-08-26T01:46:39.615Z,66.7
2016-08-26T01:47:03.745Z,67
2016-08-26T01:47:27.896Z,66.7
2016-08-26T01:47:52.050Z,66.8
2016-08-26T01:48:16.176Z,66.7
2016-08-26T01:48:40.296Z,66.8
2016-08-26T01:49:04.436Z,66.6
2016-08-26T01:49:28.577Z,66.7
2016-08-26T01:49:52.718Z,67
2016-08-26T01:50:16.836Z,66.7
2016-08-26T01:50:40.944Z,66.9
2016-08-26T01:51:05.082Z,66.7
2016-08-26T01:51:29.215Z,66.8
2016-08-26T01:51:53.367Z,66.6
2016-08-26T01:52:17.492Z,66.6
2016-08-26T01:52:41.647Z,66.7
2016-08-26T01:53:05.793Z,67.1
2016-08-26T01:53:29.905Z,67.3
2016-08-26T01:53:54.049Z,67.1
2016-08-26T01:54:18.180Z,67.2
2016-08-26T01:54:42.325Z,67.2
2016-08-26T01:55:06.462Z,66.9
2016-08-26T01:55:30.622Z,67
2016-08-26T01:55:54.755Z,67.1
2016-08-26T01:56:18.904Z,67.1
2016-08-26T01:56:43.049Z,67.1
2016-08-26T01:57:07.179Z,67.1
2016-08-26T01:57:31.322Z,67.5
2016-08-26T01:57:55.443Z,67.3
2016-08-26T01:58:19.552Z,67.5
2016-08-26T01:58:43.683Z,67.4
2016-08-26T01:59:07.870Z,67.3
2016-08-26T01:59:31.998Z,67.2
2016-08-26T01:59:56.115Z,67.5
2016-08-26T02:00:20.231Z,67.4
2016-08-26T02:00:44.363Z,67.5
2016-08-26T02:01:08.494Z,67.4
2016-08-26T02:01:32.629Z,67.5
2016-08-26T02:01:56.789Z,67.4
2016-08-26T02:02:20.970Z,67.9
2016-08-26T02:02:45.117Z,67.7
2016-08-26T02:03:09.271Z,68
2016-08-26T02:03:33.389Z,68.2
2016-08-26T02:03:57.544Z,68.2
2016-08-26T02:04:21.683Z,67.9
2016-08-26T02:04:45.824Z,68.2
2016-08-26T02:05:09.972Z,68.1
2016-08-26T02:05:34.132Z,68.2
2016-08-26T02:05:58.297Z,68.2
2016-08-26T02:06:22.460Z,68.1
2016-08-26T02:06:46.589Z,67.7
2016-08-26T02:07:10.713Z,67.9
2016-08-26T02:07:34.859Z,68.2
2016-08-26T02:07:59.002Z,68.1
2016-08-26T02:08:23.137Z,68.2
2016-08-26T02:08:47.295Z,67.7
2016-08-26T02:09:11.453Z,68.3
2016-08-26T02:09:35.594Z,68.2
2016-08-26T02:09:59.750Z,67.9
2016-08-26T02:10:23.904Z,67.9
2016-08-26T02:10:48.255Z,67.9
2016-08-26T02:11:12.457Z,68.4
2016-08-26T02:11:36.597Z,68.3
2016-08-26T02:12:00.732Z,68.9
2016-08-26T02:12:24.870Z,69.1
2016-08-26T02:12:49.021Z,68.3
2016-08-26T02:13:13.164Z,69
2016-08-26T02:13:37.313Z,68.3
2016-08-26T02:14:01.436Z,68.7
2016-08-26T02:14:25.573Z,68.4
2016-08-26T02:14:49.712Z,68.3
2016-08-26T02:15:13.851Z,68.3
2016-08-26T02:15:38.010Z,68.3
2016-08-26T02:16:02.174Z,68.4
2016-08-26T02:16:26.298Z,68.5
2016-08-26T02:16:50.433Z,68.5
2016-08-26T02:17:14.613Z,68.2
2016-08-26T02:17:38.785Z,68.6
2016-08-26T02:18:02.933Z,68.4
2016-08-26T02:18:27.044Z,68.4
2016-08-26T02:18:51.178Z,68.1
2016-08-26T02:19:15.322Z,68.7
2016-08-26T02:19:39.482Z,68.2
2016-08-26T02:20:03.622Z,68.4
2016-08-26T02:20:27.765Z,68.9
2016-08-26T02:20:51.901Z,68.7
2016-08-26T02:21:16.041Z,68.7
2016-08-26T02:21:40.197Z,68.6
2016-08-26T02:22:04.328Z,68.6
2016-08-26T02:22:28.469Z,68.7
2016-08-26T02:22:52.614Z,68.8
2016-08-26T02:23:16.745Z,68.5
2016-08-26T02:23:40.890Z,68.6
2016-08-26T02:24:05.056Z,68.6
2016-08-26T02:24:29.198Z,68.6
2016-08-26T02:24:53.331Z,68.8
2016-08-26T02:25:17.458Z,68.5
2016-08-26T02:25:41.594Z,69.3
2016-08-26T02:26:05.735Z,69
2016-08-26T02:26:29.868Z,69.2
2016-08-26T02:26:53.982Z,69
2016-08-26T02:27:18.097Z,68.6
2016-08-26T02:27:42.257Z,68.9
2016-08-26T02:28:06.409Z,68.6
2016-08-26T02:28:30.542Z,69
2016-08-26T02:28:54.694Z,68.6
2016-08-26T02:29:18.844Z,68.8
2016-08-26T02:29:42.980Z,68.6
2016-08-26T02:30:07.106Z,69.2
2016-08-26T02:30:31.235Z,69.3
2016-08-26T02:30:55.381Z,69
2016-08-26T02:31:19.512Z,69
2016-08-26T02:31:43.654Z,69.1
2016-08-26T02:32:07.819Z,69.3
2016-08-26T02:32:31.970Z,68.8
2016-08-26T02:32:56.103Z,69.3
2016-08-26T02:33:20.247Z,69.1
2016-08-26T02:33:44.397Z,69.1
2016-08-26T02:34:08.541Z,69.3
2016-08-26T02:34:32.700Z,69.2
2016-08-26T02:34:56.817Z,69.2
2016-08-26T02:35:20.961Z,69.1
2016-08-26T02:35:45.108Z,69
2016-08-26T02:36:09.258Z,69.2
2016-08-26T02:36:33.409Z,69.3
2016-08-26T02:36:57.553Z,69.7
2016-08-26T02:37:21.702Z,69.8
2016-08-26T02:37:45.850Z,69.5
2016-08-26T02:38:09.997Z,69.4
2016-08-26T02:38:34.128Z,69.8
2016-08-26T02:38:58.264Z,69.7
2016-08-26T02:39:22.414Z,69.6
2016-08-26T02:39:46.586Z,69.6
2016-08-26T02:40:10.736Z,69.4
2016-08-26T02:40:34.869Z,69.2
2016-08-26T02:40:59.012Z,69.3
2016-08-26T02:41:23.164Z,69.7
2016-08-26T02:41:47.287Z,70.2
2016-08-26T02:42:11.472Z,69.6
2016-08-26T02:42:35.640Z,69.7
2016-08-26T02:42:59.795Z,70.1
2016-08-26T02:43:23.946Z,69.8
2016-08-26T02:43:48.095Z,69.8
2016-08-26T02:44:12.239Z,69.7
2016-08-26T02:44:36.392Z,69.8
2016-08-26T02:45:00.529Z,69.7
2016-08-26T02:45:24.663Z,69.8
2016-08-26T02:45:48.808Z,69.7
2016-08-26T02:46:12.962Z,69.6
2016-08-26T02:46:37.085Z,69.6
2016-08-26T02:47:01.214Z,69.6
2016-08-26T02:47:25.326Z,69.8
2016-08-26T02:47:49.457Z,69.3
2016-08-26T02:48:13.557Z,69.5
2016-08-26T02:48:37.663Z,69.6
2016-08-26T02:49:01.797Z,69.7
2016-08-26T02:49:25.937Z,69.7
2016-08-26T02:49:50.056Z,69.8
2016-08-26T02:50:14.204Z,69.8
2016-08-26T02:50:38.349Z,69.8
2016-08-26T02:51:02.477Z,69.8
2016-08-26T02:51:26.632Z,70
2016-08-26T02:51:50.754Z,70.3
2016-08-26T02:52:14.906Z,70.3
2016-08-26T02:52:39.077Z,69.8
2016-08-26T02:53:03.212Z,69.8
2016-08-26T02:53:27.325Z,69.9
2016-08-26T02:53:51.473Z,70.1
2016-08-26T02:54:15.631Z,69.9
2016-08-26T02:54:39.772Z,69.7
2016-08-26T02:55:03.909Z,69.8
2016-08-26T02:55:28.054Z,70.2
2016-08-26T02:55:52.182Z,70.3
2016-08-26T02:56:16.328Z,69.9
2016-08-26T02:56:40.461Z,70
2016-08-26T02:57:04.627Z,70
2016-08-26T02:57:28.775Z,70.3
2016-08-26T02:57:52.915Z,70.5
2016-08-26T02:58:17.046Z,69.8
2016-08-26T02:58:41.185Z,70.5
2016-08-26T02:59:05.316Z,70.6
2016-08-26T02:59:29.467Z,70.5
2016-08-26T02:59:53.600Z,69.7
2016-08-26T03:00:17.752Z,69.9
2016-08-26T03:00:41.873Z,70
2016-08-26T03:01:06.014Z,69.9
2016-08-26T03:01:30.144Z,70.2
2016-08-26T03:01:54.278Z,70.3
2016-08-26T03:02:18.402Z,69.8
2016-08-26T03:02:42.559Z,70.1
2016-08-26T03:03:06.697Z,69.9
2016-08-26T03:03:30.835Z,69.8
2016-08-26T03:03:54.959Z,70
2016-08-26T03:04:19.123Z,69.7
2016-08-26T03:04:43.257Z,70.1
2016-08-26T03:05:07.420Z,69.9
2016-08-26T03:05:31.585Z,69.9
2016-08-26T03:05:55.722Z,69.7
2016-08-26T03:06:19.858Z,70.5
2016-08-26T03:06:43.980Z,70.5
2016-08-26T03:07:08.135Z,69.7
2016-08-26T03:07:32.321Z,69.6
2016-08-26T03:07:56.471Z,69.9
2016-08-26T03:08:20.609Z,69.8
2016-08-26T03:08:44.749Z,69.6
2016-08-26T03:09:08.885Z,69.8
2016-08-26T03:09:33.029Z,70.4
2016-08-26T03:09:57.161Z,70.3
2016-08-26T03:10:21.276Z,70.5
2016-08-26T03:10:45.446Z,71.1
2016-08-26T03:11:09.580Z,71
2016-08-26T03:11:33.710Z,71
2016-08-26T03:11:57.843Z,71.2
2016-08-26T03:12:21.984Z,71.1
2016-08-26T03:12:46.129Z,70.7
2016-08-26T03:13:10.298Z,71.2
2016-08-26T03:13:34.418Z,71.1
2016-08-26T03:13:58.575Z,71
2016-08-26T03:14:22.722Z,71.2
2016-08-26T03:14:46.875Z,71
2016-08-26T03:15:11.016Z,71
2016-08-26T03:15:35.160Z,70.6
2016-08-26T03:15:59.286Z,71
2016-08-26T03:16:23.432Z,71
2016-08-26T03:16:47.579Z,71.1
2016-08-26T03:17:11.707Z,70.7
2016-08-26T03:17:35.874Z,71.2
2016-08-26T03:18:00.038Z,71.1
2016-08-26T03:18:24.158Z,71.2
2016-08-26T03:18:48.263Z,71.4
2016-08-26T03:19:12.413Z,71.1
2016-08-26T03:19:36.564Z,71.4
2016-08-26T03:20:00.744Z,71.4
2016-08-26T03:20:24.878Z,71
2016-08-26T03:20:49.008Z,71.2
2016-08-26T03:21:13.156Z,71.2
2016-08-26T03:21:37.290Z,71
2016-08-26T03:22:01.436Z,71.1
2016-08-26T03:22:25.589Z,71
2016-08-26T03:22:49.732Z,71.1
2016-08-26T03:23:13.893Z,71
2016-08-26T03:23:38.014Z,70.6
2016-08-26T03:24:02.169Z,70.8
2016-08-26T03:24:26.330Z,70.6
2016-08-26T03:24:50.484Z,70.4
2016-08-26T03:25:14.606Z,70.5
2016-08-26T03:25:38.728Z,70.7
2016-08-26T03:26:02.875Z,70.4
2016-08-26T03:26:27.042Z,70.1
2016-08-26T03:26:51.152Z,70.8
2016-08-26T03:27:15.272Z,70.7
2016-08-26T03:27:39.413Z,70.4
2016-08-26T03:28:03.545Z,70.6
2016-08-26T03:28:27.665Z,70.8
2016-08-26T03:28:51.806Z,70.8
2016-08-26T03:29:15.936Z,70.8
2016-08-26T03:29:40.062Z,71.2
2016-08-26T03:30:04.181Z,70.7
2016-08-26T03:30:28.317Z,71.3
2016-08-26T03:30:52.454Z,71.3
2016-08-26T03:31:16.618Z,71.3
2016-08-26T03:31:40.763Z,71.4
2016-08-26T03:32:04.911Z,70.9
2016-08-26T03:32:29.068Z,71.1
2016-08-26T03:32:53.227Z,71.2
2016-08-26T03:33:17.409Z,71
2016-08-26T03:33:41.545Z,70.7
2016-08-26T03:34:05.770Z,71
2016-08-26T03:34:29.900Z,71.2
2016-08-26T03:34:54.015Z,71.2
2016-08-26T03:35:18.141Z,70.5
2016-08-26T03:35:42.269Z,70.8
2016-08-26T03:36:06.419Z,70.7
2016-08-26T03:36:30.566Z,71
2016-08-26T03:36:54.707Z,71.2
2016-08-26T03:37:18.865Z,71.2
2016-08-26T03:37:42.992Z,71
2016-08-26T03:38:07.333Z,71.1
2016-08-26T03:38:31.470Z,71
2016-08-26T03:38:55.615Z,71.1
2016-08-26T03:39:19.765Z,71.1
2016-08-26T03:39:43.908Z,71
2016-08-26T03:40:08.011Z,70.9
2016-08-26T03:40:32.162Z,71.3
2016-08-26T03:40:56.318Z,71.1
2016-08-26T03:41:20.458Z,71
2016-08-26T03:41:44.593Z,71.1
2016-08-26T03:42:08.731Z,71.3
2016-08-26T03:42:32.891Z,71.4
2016-08-26T03:42:57.046Z,71.2
2016-08-26T03:43:21.187Z,71.1
2016-08-26T03:43:45.315Z,71.3
2016-08-26T03:44:09.462Z,71.2
2016-08-26T03:44:33.607Z,71
2016-08-26T03:44:57.706Z,71.3
2016-08-26T03:45:21.862Z,71.2
2016-08-26T03:45:46.038Z,71.1
2016-08-26T03:46:10.171Z,71.2
2016-08-26T03:46:34.303Z,71
2016-08-26T03:46:58.446Z,71.2
2016-08-26T03:47:22.798Z,71.2
2016-08-26T03:47:46.939Z,71
2016-08-26T03:48:11.075Z,71.4
2016-08-26T03:48:35.216Z,71.4
2016-08-26T03:48:59.356Z,71.1
2016-08-26T03:49:23.504Z,71.2
2016-08-26T03:49:47.646Z,71.1
2016-08-26T03:50:11.801Z,71
2016-08-26T03:50:35.965Z,71.3
2016-08-26T03:51:00.076Z,71
2016-08-26T03:51:24.204Z,71
2016-08-26T03:51:48.313Z,71
2016-08-26T03:52:12.446Z,71
2016-08-26T03:52:36.585Z,71.2
2016-08-26T03:53:00.712Z,71
2016-08-26T03:53:24.860Z,71
2016-08-26T03:53:49.008Z,71.3
2016-08-26T03:54:13.271Z,71.1
2016-08-26T03:54:37.426Z,70.8
2016-08-26T03:55:01.573Z,71.4
2016-08-26T03:55:25.713Z,71.2
2016-08-26T03:55:49.854Z,71.3
2016-08-26T03:56:14.005Z,71.4
2016-08-26T03:56:38.133Z,71.3
2016-08-26T03:57:02.279Z,71
2016-08-26T03:57:26.413Z,71.3
2016-08-26T03:57:50.553Z,71.5
2016-08-26T03:58:14.706Z,71.2
2016-08-26T03:58:38.858Z,71.5
2016-08-26T03:59:02.991Z,71.4
2016-08-26T03:59:27.142Z,71
2016-08-26T03:59:51.271Z,71.2
2016-08-26T04:00:15.416Z,71.4
2016-08-26T04:00:39.594Z,71.4
2016-08-26T04:01:03.710Z,71.4
2016-08-26T04:01:27.825Z,71.4
2016-08-26T04:01:52.000Z,71.4
2016-08-26T04:02:16.138Z,71.4
2016-08-26T04:02:40.779Z,71.4
2016-08-26T04:03:04.946Z,71.2
2016-08-26T04:03:29.090Z,71.5
2016-08-26T04:03:53.236Z,71.3
2016-08-26T04:04:17.404Z,71.4
2016-08-26T04:04:41.561Z,71.4
2016-08-26T04:05:05.707Z,71.4
2016-08-26T04:05:29.841Z,71.5
2016-08-26T04:05:53.987Z,71.3
2016-08-26T04:06:18.961Z,71.3
2016-08-26T04:06:43.111Z,71
2016-08-26T04:07:07.270Z,70.9
2016-08-26T04:07:31.404Z,71.1
2016-08-26T04:07:55.541Z,71.6
2016-08-26T04:08:19.688Z,71.4
2016-08-26T04:08:43.838Z,71.3
2016-08-26T04:09:07.989Z,71.2
2016-08-26T04:09:32.126Z,71.7
2016-08-26T04:09:56.295Z,71.8
2016-08-26T04:10:20.436Z,71.7
2016-08-26T04:10:44.587Z,72.1
2016-08-26T04:11:08.726Z,71.7
2016-08-26T04:11:32.868Z,71.6
2016-08-26T04:11:57.005Z,71.7
2016-08-26T04:12:21.146Z,71.7
2016-08-26T04:12:45.319Z,71.9
2016-08-26T04:13:09.450Z,71.9
2016-08-26T04:13:33.615Z,71.8
2016-08-26T04:13:57.757Z,71.2
2016-08-26T04:14:21.914Z,71.3
2016-08-26T04:14:46.034Z,71.7
2016-08-26T04:15:10.183Z,71.7
2016-08-26T04:15:34.363Z,71.9
2016-08-26T04:15:58.538Z,71.6
2016-08-26T04:16:22.670Z,71.2
2016-08-26T04:16:46.811Z,71.1
2016-08-26T04:17:10.959Z,71.4
2016-08-26T04:17:35.129Z,71.2
2016-08-26T04:17:59.270Z,71.2
2016-08-26T04:18:23.413Z,71.2
2016-08-26T04:18:47.554Z,71.5
2016-08-26T04:19:11.712Z,71.4
2016-08-26T04:19:35.842Z,71.7
2016-08-26T04:19:59.991Z,71.7
2016-08-26T04:20:24.144Z,72
2016-08-26T04:20:48.313Z,72
2016-08-26T04:21:12.452Z,71.9
2016-08-26T04:21:36.591Z,71.8
2016-08-26T04:22:00.738Z,71.8
2016-08-26T04:22:24.910Z,71.9
2016-08-26T04:22:49.061Z,71.6
2016-08-26T04:23:13.197Z,71.6
2016-08-26T04:23:37.350Z,71.9
2016-08-26T04:24:01.508Z,71.2
2016-08-26T04:24:25.645Z,71.9
2016-08-26T04:24:49.814Z,71.9
2016-08-26T04:25:13.950Z,71.8
2016-08-26T04:25:38.093Z,71.8
2016-08-26T04:26:02.236Z,72.2
2016-08-26T04:26:26.370Z,71.6
2016-08-26T04:26:50.531Z,71.7
2016-08-26T04:27:14.699Z,71.6
2016-08-26T04:27:38.820Z,71.6
2016-08-26T04:28:02.965Z,71.6
2016-08-26T04:28:27.106Z,71.9
2016-08-26T04:28:51.245Z,71.8
2016-08-26T04:29:15.387Z,71.9
2016-08-26T04:29:39.528Z,72.3
2016-08-26T04:30:03.670Z,72.3
2016-08-26T04:30:27.842Z,72.1
2016-08-26T04:30:51.993Z,72.3
2016-08-26T04:31:16.097Z,71.5
2016-08-26T04:31:40.256Z,72.1
2016-08-26T04:32:04.414Z,72.1
2016-08-26T04:32:28.559Z,72
2016-08-26T04:32:52.692Z,72.1
2016-08-26T04:33:16.837Z,72.2
2016-08-26T04:33:41.004Z,71.6
2016-08-26T04:34:05.164Z,72.1
2016-08-26T04:34:29.286Z,72.3
2016-08-26T04:34:53.433Z,72.2
2016-08-26T04:35:17.579Z,71.7
2016-08-26T04:35:41.731Z,71.6
2016-08-26T04:36:05.846Z,71.7
2016-08-26T04:36:29.994Z,71.9
2016-08-26T04:36:54.129Z,71.9
2016-08-26T04:37:18.268Z,71.9
2016-08-26T04:37:42.395Z,71.8
2016-08-26T04:38:06.551Z,72.1
2016-08-26T04:38:30.702Z,71.9
2016-08-26T04:38:54.856Z,71.6
2016-08-26T04:39:18.998Z,71.7
2016-08-26T04:39:43.141Z,71.7
2016-08-26T04:40:07.285Z,71.9
2016-08-26T04:40:31.439Z,71.9
2016-08-26T04:40:55.583Z,71.7
2016-08-26T04:41:19.759Z,71.9
2016-08-26T04:41:43.906Z,71.5
2016-08-26T04:42:08.083Z,71.7
2016-08-26T04:42:32.217Z,71.9
2016-08-26T04:42:56.367Z,71.8
2016-08-26T04:43:20.530Z,71.9
2016-08-26T04:43:44.678Z,71.9
2016-08-26T04:44:08.827Z,71.7
2016-08-26T04:44:32.993Z,71.6
2016-08-26T04:44:57.130Z,71.8
2016-08-26T04:45:21.299Z,71.8
2016-08-26T04:45:45.438Z,71.4
2016-08-26T04:46:09.567Z,71.7
2016-08-26T04:46:33.728Z,71.8
2016-08-26T04:46:57.894Z,71.6
2016-08-26T04:47:22.030Z,71.5
2016-08-26T04:47:46.214Z,71.3
2016-08-26T04:48:10.360Z,71.4
2016-08-26T04:48:34.497Z,71.3
2016-08-26T04:48:58.643Z,71.7
2016-08-26T04:49:22.780Z,71.5
2016-08-26T04:49:46.933Z,71.2
2016-08-26T04:50:11.081Z,71.2
2016-08-26T04:50:35.228Z,71.2
2016-08-26T04:50:59.372Z,71.5
2016-08-26T04:51:23.513Z,71.4
2016-08-26T04:51:47.660Z,71.4
2016-08-26T04:52:11.806Z,71.4
2016-08-26T04:52:35.959Z,71.5
2016-08-26T04:53:00.116Z,71.4
2016-08-26T04:53:24.240Z,71.6
2016-08-26T04:53:48.361Z,71.6
2016-08-26T04:54:12.515Z,71.8
2016-08-26T04:54:36.665Z,71.7
2016-08-26T04:55:00.824Z,71.2
2016-08-26T04:55:24.982Z,71.4
2016-08-26T04:55:49.143Z,71.5
2016-08-26T04:56:13.295Z,71.4
2016-08-26T04:56:37.446Z,71.4
2016-08-26T04:57:01.597Z,71.4
2016-08-26T04:57:25.744Z,71.6
2016-08-26T04:57:49.901Z,71.5
2016-08-26T04:58:14.078Z,71.4
2016-08-26T04:58:38.216Z,71.7
2016-08-26T04:59:02.373Z,71.6
2016-08-26T04:59:26.519Z,71.7
2016-08-26T04:59:50.668Z,71.6
2016-08-26T05:00:14.812Z,71.5
2016-08-26T05:00:38.956Z,71.6
2016-08-26T05:01:03.116Z,71.6
2016-08-26T05:01:27.262Z,71.5
2016-08-26T05:01:51.407Z,71.5
2016-08-26T05:02:15.561Z,71.5
2016-08-26T05:02:39.728Z,71.2
2016-08-26T05:03:03.892Z,71.2
2016-08-26T05:03:28.022Z,71
2016-08-26T05:03:52.176Z,71
2016-08-26T05:04:16.350Z,70.9
2016-08-26T05:04:40.507Z,70.7
2016-08-26T05:05:04.647Z,71
2016-08-26T05:05:28.795Z,71.2
2016-08-26T05:05:52.951Z,71.3
2016-08-26T05:06:17.108Z,71
2016-08-26T05:06:41.255Z,71
2016-08-26T05:07:05.405Z,71.2
2016-08-26T05:07:29.558Z,71.1
2016-08-26T05:07:53.735Z,71.1
2016-08-26T05:08:17.878Z,71.3
2016-08-26T05:08:42.035Z,71.8
2016-08-26T05:09:06.172Z,70.9
2016-08-26T05:09:30.327Z,71.3
2016-08-26T05:09:54.489Z,71
2016-08-26T05:10:18.664Z,71.2
2016-08-26T05:10:42.815Z,71.1
2016-08-26T05:11:06.948Z,71.2
2016-08-26T05:11:31.104Z,70.8
2016-08-26T05:11:55.241Z,71.1
2016-08-26T05:12:19.391Z,70.9
2016-08-26T05:12:43.529Z,70.9
2016-08-26T05:13:07.697Z,71.2
2016-08-26T05:13:31.852Z,71.2
2016-08-26T05:13:56.012Z,71.2
2016-08-26T05:14:20.179Z,71.2
2016-08-26T05:14:44.335Z,71.1
2016-08-26T05:15:08.482Z,71.1
2016-08-26T05:15:32.613Z,71
2016-08-26T05:15:56.760Z,71.2
2016-08-26T05:16:20.910Z,71
2016-08-26T05:16:45.074Z,71.2
2016-08-26T05:17:09.245Z,71
2016-08-26T05:17:33.406Z,71
2016-08-26T05:17:57.550Z,70.9
2016-08-26T05:18:21.692Z,70.8
2016-08-26T05:18:45.824Z,71.1
2016-08-26T05:19:09.977Z,71
2016-08-26T05:19:34.127Z,70.7
2016-08-26T05:19:58.271Z,70.9
2016-08-26T05:20:22.402Z,70.7
2016-08-26T05:20:46.545Z,70.8
2016-08-26T05:21:10.709Z,70.8
2016-08-26T05:21:34.851Z,70.8
2016-08-26T05:21:59.012Z,70.6
2016-08-26T05:22:23.176Z,70.6
2016-08-26T05:22:47.326Z,70.6
2016-08-26T05:23:11.449Z,70.5
2016-08-26T05:23:35.608Z,70.6
2016-08-26T05:23:59.754Z,70.6